Time;durP1;ratioP1;P1;durP2;ratioP2;P2;SDS_P1;SDS_P2;PMS_P1;PMS_P2;Temp;Humidity;BMP_temperature;BMP_pressure;BME280_temperature;BME280_humidity;BME280_pressure;Samples;Min_cycle;Max_cycle;Signal;HPM_P1;HPM_P2
2022/08/03 00:01:27;;;;;;;7.30;6.10;;;;;;;;;;110146;1257;34901;-35
2022/08/03 00:04:01;;;;;;;6.80;5.90;;;;;;;;;;110097;1251;32682;-34
2022/08/03 00:06:36;;;;;;;8.90;6.20;;;;;;;;;;110123;1249;33077;-34
2022/08/03 00:09:09;;;;;;;7.50;6.00;;;;;;;;;;110146;1257;33314;-34
2022/08/03 00:11:42;;;;;;;7.80;5.70;;;;;;;;;;110163;1257;33300;-34
2022/08/03 00:14:15;;;;;;;9.10;6.60;;;;;;;;;;110139;1257;34373;-34
2022/08/03 00:16:47;;;;;;;6.50;5.60;;;;;;;;;;110128;1250;35334;-34
2022/08/03 00:19:19;;;;;;;7.00;6.20;;;;;;;;;;110152;1250;33451;-34
2022/08/03 00:21:52;;;;;;;6.60;5.90;;;;;;;;;;110124;1250;32408;-34
2022/08/03 00:24:24;;;;;;;7.60;6.80;;;;;;;;;;110111;1254;34100;-34
2022/08/03 00:26:59;;;;;;;7.70;6.30;;;;;;;;;;110156;1250;34338;-34
2022/08/03 00:29:36;;;;;;;7.20;6.30;;;;;;;;;;110151;1257;33323;-34
2022/08/03 00:32:10;;;;;;;8.30;6.60;;;;;;;;;;110126;1257;34080;-34
2022/08/03 00:34:43;;;;;;;8.10;6.10;;;;;;;;;;110137;1249;33363;-34
2022/08/03 00:37:15;;;;;;;9.00;6.80;;;;;;;;;;110145;1257;33242;-34
2022/08/03 00:39:47;;;;;;;7.00;6.30;;;;;;;;;;110165;1257;33695;-34
2022/08/03 00:42:20;;;;;;;7.30;6.50;;;;;;;;;;110140;1251;33871;-34
2022/08/03 00:44:52;;;;;;;8.10;6.80;;;;;;;;;;110131;1257;35395;-34
2022/08/03 00:47:27;;;;;;;7.10;6.40;;;;;;;;;;110078;1249;33861;-34
2022/08/03 00:50:00;;;;;;;7.00;6.00;;;;;;;;;;110145;1257;33289;-34
2022/08/03 00:52:32;;;;;;;7.20;6.50;;;;;;;;;;110159;1257;33287;-34
2022/08/03 00:55:05;;;;;;;7.70;6.50;;;;;;;;;;110140;1250;35171;-34
2022/08/03 00:57:39;;;;;;;7.60;6.50;;;;;;;;;;110131;1257;34432;-34
2022/08/03 01:00:16;;;;;;;6.60;5.80;;;;;;;;;;110134;1250;34988;-34
2022/08/03 01:02:49;;;;;;;6.80;6.10;;;;;;;;;;110134;1257;33026;-34
2022/08/03 01:05:26;;;;;;;7.40;6.70;;;;;;;;;;110098;1257;35161;-34
2022/08/03 01:08:08;;;;;;;7.40;6.60;;;;;;;;;;110165;1249;32666;-34
2022/08/03 01:10:48;;;;;;;7.20;6.20;;;;;;;;;;110159;1250;33769;-34
2022/08/03 01:13:27;;;;;;;8.10;6.60;;;;;;;;;;110135;1250;33925;-34
2022/08/03 01:16:08;;;;;;;9.30;6.60;;;;;;;;;;110180;1257;32439;-34
2022/08/03 01:18:47;;;;;;;7.80;6.60;;;;;;;;;;110093;1257;33266;-33
2022/08/03 01:21:26;;;;;;;7.30;6.60;;;;;;;;;;110214;1250;31745;-35
2022/08/03 01:24:12;;;;;;;7.30;6.60;;;;;;;;;;110178;1251;31941;-34
2022/08/03 01:27:04;;;;;;;7.10;6.40;;;;;;;;;;110127;1250;35025;-35
2022/08/03 01:30:00;;;;;;;7.90;6.50;;;;;;;;;;110172;1257;35123;-34
2022/08/03 01:32:43;;;;;;;8.60;6.60;;;;;;;;;;110089;1250;32100;-35
2022/08/03 01:35:26;;;;;;;6.90;6.20;;;;;;;;;;110123;1250;33615;-35
2022/08/03 01:38:01;;;;;;;;;;;;;;;;;;110189;1257;34965;-33
2022/08/03 01:40:36;;;;;;;8.70;6.30;;;;;;;;;;110183;1249;33496;-33
2022/08/03 01:43:13;;;;;;;8.20;7.00;;;;;;;;;;110175;1255;33336;-33
2022/08/03 01:45:46;;;;;;;7.50;6.80;;;;;;;;;;110090;1257;34898;-33
2022/08/03 01:48:18;;;;;;;;;;;;;;;;;;110225;1250;35512;-35
2022/08/03 01:50:53;;;;;;;7.30;6.20;;;;;;;;;;110205;1257;33804;-35
2022/08/03 01:53:26;;;;;;;7.70;7.00;;;;;;;;;;110167;1250;34277;-35
2022/08/03 01:56:03;;;;;;;8.10;7.30;;;;;;;;;;110130;1249;34357;-34
2022/08/03 01:58:36;;;;;;;7.80;6.80;;;;;;;;;;110141;1250;34276;-35
2022/08/03 02:01:10;;;;;;;7.50;6.80;;;;;;;;;;110268;1257;35115;-35
2022/08/03 02:03:45;;;;;;;7.80;7.00;;;;;;;;;;110150;1250;32006;-35
2022/08/03 02:06:18;;;;;;;7.60;6.80;;;;;;;;;;110155;1250;34268;-35
2022/08/03 02:08:52;;;;;;;7.40;6.70;;;;;;;;;;110167;1249;35480;-35
2022/08/03 02:11:24;;;;;;;7.90;7.10;;;;;;;;;;110105;1257;35557;-35
2022/08/03 02:13:58;;;;;;;8.50;7.10;;;;;;;;;;110133;1249;33814;-35
2022/08/03 02:16:30;;;;;;;;;;;;;;;;;;110197;1257;35022;-35
2022/08/03 02:19:05;;;;;;;7.60;6.80;;;;;;;;;;110149;1257;35020;-35
2022/08/03 02:21:39;;;;;;;7.60;6.80;;;;;;;;;;110148;1257;35407;-35
2022/08/03 02:24:14;;;;;;;8.00;7.20;;;;;;;;;;110169;1257;32536;-35
2022/08/03 02:26:46;;;;;;;8.00;6.80;;;;;;;;;;110098;1251;31741;-35
2022/08/03 02:29:24;;;;;;;7.90;7.10;;;;;;;;;;110176;1250;34088;-35
2022/08/03 02:31:59;;;;;;;8.30;7.50;;;;;;;;;;110105;1257;33702;-35
2022/08/03 02:34:35;;;;;;;8.00;7.10;;;;;;;;;;110177;1257;34962;-35
2022/08/03 02:37:15;;;;;;;8.20;6.70;;;;;;;;;;110166;1257;35067;-35
2022/08/03 02:39:52;;;;;;;9.20;7.10;;;;;;;;;;110150;1257;34247;-35
2022/08/03 02:42:25;;;;;;;8.20;7.40;;;;;;;;;;110077;1253;35488;-35
2022/08/03 02:45:00;;;;;;;10.40;7.00;;;;;;;;;;110169;1250;33078;-35
2022/08/03 02:47:34;;;;;;;8.30;7.50;;;;;;;;;;110100;1250;34995;-35
2022/08/03 02:50:10;;;;;;;7.90;7.10;;;;;;;;;;110109;1250;34115;-35
2022/08/03 02:52:47;;;;;;;8.10;7.30;;;;;;;;;;110178;1250;35063;-35
2022/08/03 02:55:21;;;;;;;8.30;7.50;;;;;;;;;;110149;1250;36126;-35
2022/08/03 02:57:55;;;;;;;7.90;7.20;;;;;;;;;;110150;1257;36092;-35
2022/08/03 03:00:28;;;;;;;7.80;7.10;;;;;;;;;;110058;1250;33775;-35
2022/08/03 03:03:03;;;;;;;7.60;6.80;;;;;;;;;;110144;1257;33418;-35
2022/08/03 03:05:36;;;;;;;8.60;7.80;;;;;;;;;;110150;1251;32949;-35
2022/08/03 03:08:11;;;;;;;8.60;7.70;;;;;;;;;;110139;1257;35045;-35
2022/08/03 03:10:45;;;;;;;9.50;7.40;;;;;;;;;;110117;1257;34243;-35
2022/08/03 03:13:19;;;;;;;9.00;8.10;;;;;;;;;;110119;1249;33813;-35
2022/08/03 03:15:54;;;;;;;8.10;7.40;;;;;;;;;;110140;1250;33585;-35
2022/08/03 03:18:27;;;;;;;9.40;8.40;;;;;;;;;;110122;1250;34955;-35
2022/08/03 03:21:01;;;;;;;9.00;7.80;;;;;;;;;;110164;1257;35123;-35
2022/08/03 03:23:39;;;;;;;8.40;7.60;;;;;;;;;;110146;1251;33791;-35
2022/08/03 03:26:15;;;;;;;10.20;8.30;;;;;;;;;;110174;1257;33275;-35
2022/08/03 03:28:48;;;;;;;8.40;7.50;;;;;;;;;;110166;1250;35164;-35
2022/08/03 03:31:22;;;;;;;8.80;7.80;;;;;;;;;;110185;1257;32994;-35
2022/08/03 03:33:56;;;;;;;8.20;7.30;;;;;;;;;;109916;1257;335626;-35
2022/08/03 03:36:28;;;;;;;10.50;7.70;;;;;;;;;;110152;1250;34324;-35
2022/08/03 03:39:03;;;;;;;8.10;7.30;;;;;;;;;;110139;1257;33755;-35
2022/08/03 03:41:39;;;;;;;8.30;7.20;;;;;;;;;;110157;1257;34597;-35
2022/08/03 03:44:11;;;;;;;8.20;7.40;;;;;;;;;;110190;1257;34520;-35
2022/08/03 03:46:46;;;;;;;8.70;7.80;;;;;;;;;;110152;1250;33700;-35
2022/08/03 03:49:18;;;;;;;9.00;8.10;;;;;;;;;;110089;1250;33940;-35
2022/08/03 03:51:53;;;;;;;9.30;8.50;;;;;;;;;;110113;1257;34133;-35
2022/08/03 03:54:26;;;;;;;9.50;8.30;;;;;;;;;;110134;1257;34495;-35
2022/08/03 03:56:58;;;;;;;9.00;8.20;;;;;;;;;;110119;1250;34118;-35
2022/08/03 03:59:32;;;;;;;8.90;8.00;;;;;;;;;;110094;1250;34368;-35
2022/08/03 04:02:04;;;;;;;;;;;;;;;;;;110150;1250;33859;-35
2022/08/03 04:13:36;;;;;;;9.20;8.40;;;;;;;;;;109672;1263;35414;-35
2022/08/03 04:16:12;;;;;;;9.10;8.30;;;;;;;;;;110061;1250;35085;-35
2022/08/03 04:18:49;;;;;;;10.10;9.00;;;;;;;;;;110106;1250;32711;-35
2022/08/03 04:21:24;;;;;;;9.20;8.40;;;;;;;;;;110216;1257;33523;-35
2022/08/03 04:24:03;;;;;;;9.50;8.60;;;;;;;;;;110118;1249;34632;-35
2022/08/03 04:26:40;;;;;;;9.40;8.60;;;;;;;;;;110124;1256;34788;-35
2022/08/03 04:29:13;;;;;;;9.40;8.50;;;;;;;;;;110198;1257;31983;-35
2022/08/03 04:31:47;;;;;;;9.00;8.10;;;;;;;;;;110162;1257;33059;-35
2022/08/03 04:34:20;;;;;;;8.90;8.10;;;;;;;;;;110127;1257;33419;-35
2022/08/03 04:37:00;;;;;;;9.80;8.80;;;;;;;;;;110148;1251;33032;-35
2022/08/03 04:39:35;;;;;;;9.40;8.60;;;;;;;;;;110165;1256;34699;-36
2022/08/03 04:42:10;;;;;;;9.00;8.10;;;;;;;;;;110165;1257;34465;-36
2022/08/03 04:44:45;;;;;;;9.00;8.20;;;;;;;;;;110140;1250;35382;-36
2022/08/03 04:47:20;;;;;;;9.50;8.40;;;;;;;;;;110170;1254;35523;-36
2022/08/03 04:49:54;;;;;;;9.90;9.00;;;;;;;;;;110075;1257;34047;-36
2022/08/03 04:52:28;;;;;;;10.20;9.30;;;;;;;;;;110104;1251;33425;-35
2022/08/03 04:55:00;;;;;;;10.60;9.50;;;;;;;;;;110174;1250;35022;-35
2022/08/03 04:57:33;;;;;;;9.90;9.00;;;;;;;;;;110160;1250;34410;-35
2022/08/03 05:00:09;;;;;;;10.60;9.60;;;;;;;;;;110083;1250;33189;-35
2022/08/03 05:02:42;;;;;;;10.50;9.50;;;;;;;;;;110239;1250;35785;-35
2022/08/03 05:05:15;;;;;;;11.20;10.20;;;;;;;;;;110166;1257;35221;-35
2022/08/03 05:07:48;;;;;;;10.90;9.80;;;;;;;;;;110100;1250;34253;-35
2022/08/03 05:10:23;;;;;;;12.00;10.70;;;;;;;;;;110077;1257;35481;-35
2022/08/03 05:12:58;;;;;;;10.90;9.90;;;;;;;;;;110088;1257;33625;-35
2022/08/03 05:15:31;;;;;;;10.40;9.40;;;;;;;;;;110133;1257;35094;-35
2022/08/03 05:18:06;;;;;;;11.80;10.60;;;;;;;;;;110155;1257;33242;-35
2022/08/03 05:20:40;;;;;;;11.60;10.50;;;;;;;;;;110188;1250;34470;-35
2022/08/03 05:23:12;;;;;;;12.80;11.50;;;;;;;;;;110116;1257;31601;-35
2022/08/03 05:25:45;;;;;;;11.30;10.30;;;;;;;;;;110144;1251;33336;-35
2022/08/03 05:28:17;;;;;;;11.50;10.50;;;;;;;;;;110141;1252;34362;-35
2022/08/03 05:30:50;;;;;;;11.90;10.70;;;;;;;;;;110071;1257;34473;-35
2022/08/03 05:33:25;;;;;;;11.50;10.40;;;;;;;;;;110164;1250;34375;-35
2022/08/03 05:35:58;;;;;;;12.10;11.00;;;;;;;;;;110130;1250;33964;-35
2022/08/03 05:38:34;;;;;;;12.50;11.20;;;;;;;;;;110107;1251;34879;-35
2022/08/03 05:41:08;;;;;;;12.30;11.10;;;;;;;;;;110094;1257;34059;-35
2022/08/03 05:43:40;;;;;;;11.80;10.60;;;;;;;;;;110176;1250;34659;-35
2022/08/03 05:46:12;;;;;;;12.10;11.00;;;;;;;;;;110196;1257;33976;-35
2022/08/03 05:48:45;;;;;;;12.10;11.00;;;;;;;;;;110123;1251;34511;-35
2022/08/03 05:51:17;;;;;;;12.60;11.20;;;;;;;;;;110132;1251;35011;-35
2022/08/03 05:53:50;;;;;;;12.50;11.40;;;;;;;;;;110154;1250;35283;-35
2022/08/03 05:56:25;;;;;;;12.20;10.90;;;;;;;;;;110129;1251;35361;-35
2022/08/03 05:58:57;;;;;;;12.80;11.40;;;;;;;;;;110242;1257;35519;-35
2022/08/03 06:01:31;;;;;;;11.90;10.80;;;;;;;;;;110141;1257;32630;-35
2022/08/03 06:04:07;;;;;;;12.00;10.90;;;;;;;;;;110096;1250;33886;-35
2022/08/03 06:06:40;;;;;;;12.00;10.80;;;;;;;;;;110111;1257;34138;-35
2022/08/03 06:09:14;;;;;;;12.50;11.20;;;;;;;;;;110165;1254;33484;-37
2022/08/03 06:11:46;;;;;;;12.80;11.60;;;;;;;;;;110180;1251;33664;-36
2022/08/03 06:14:19;;;;;;;12.80;11.50;;;;;;;;;;110103;1250;33903;-36
2022/08/03 06:16:52;;;;;;;12.70;11.20;;;;;;;;;;110096;1256;35074;-35
2022/08/03 06:19:25;;;;;;;13.00;11.70;;;;;;;;;;110134;1251;34519;-34
2022/08/03 06:21:58;;;;;;;15.30;13.80;;;;;;;;;;110151;1257;32445;-35
2022/08/03 06:24:30;;;;;;;12.70;11.60;;;;;;;;;;110112;1257;34020;-35
2022/08/03 06:27:03;;;;;;;12.00;10.80;;;;;;;;;;110081;1251;33755;-35
2022/08/03 06:29:36;;;;;;;12.80;11.60;;;;;;;;;;110133;1257;34512;-35
2022/08/03 06:32:09;;;;;;;11.80;10.50;;;;;;;;;;110121;1257;34961;-35
2022/08/03 06:34:42;;;;;;;12.10;10.90;;;;;;;;;;110224;1257;34386;-35
2022/08/03 06:37:14;;;;;;;11.40;10.30;;;;;;;;;;110116;1251;32545;-35
2022/08/03 06:39:46;;;;;;;10.50;9.50;;;;;;;;;;110119;1251;33739;-35
2022/08/03 06:42:18;;;;;;;11.40;10.30;;;;;;;;;;110069;1258;33508;-36
2022/08/03 06:44:51;;;;;;;11.70;10.40;;;;;;;;;;110113;1257;34067;-36
2022/08/03 06:47:23;;;;;;;11.40;10.40;;;;;;;;;;110099;1257;34291;-36
2022/08/03 06:49:58;;;;;;;12.30;11.10;;;;;;;;;;110082;1251;33540;-36
2022/08/03 06:52:31;;;;;;;11.60;10.30;;;;;;;;;;110129;1257;34429;-36
2022/08/03 06:55:09;;;;;;;14.20;12.90;;;;;;;;;;110096;1257;34428;-34
2022/08/03 06:57:41;;;;;;;12.00;10.90;;;;;;;;;;110193;1251;32632;-35
2022/08/03 07:00:16;;;;;;;15.30;13.70;;;;;;;;;;110235;1251;34374;-35
2022/08/03 07:02:49;;;;;;;12.60;11.40;;;;;;;;;;110256;1251;33762;-36
2022/08/03 07:05:22;;;;;;;13.10;11.90;;;;;;;;;;110213;1257;35237;-36
2022/08/03 07:08:00;;;;;;;12.50;11.30;;;;;;;;;;110155;1253;33358;-36
2022/08/03 07:10:33;;;;;;;13.30;12.00;;;;;;;;;;110209;1251;35523;-36
2022/08/03 07:13:06;;;;;;;13.10;11.90;;;;;;;;;;110156;1257;33403;-36
2022/08/03 07:15:38;;;;;;;14.20;12.80;;;;;;;;;;110164;1251;33763;-35
2022/08/03 07:18:10;;;;;;;12.60;11.40;;;;;;;;;;110256;1257;32613;-35
2022/08/03 07:20:42;;;;;;;12.90;11.60;;;;;;;;;;110153;1251;34345;-35
2022/08/03 07:23:17;;;;;;;15.20;13.70;;;;;;;;;;110174;1257;34460;-35
2022/08/03 07:25:49;;;;;;;13.40;12.10;;;;;;;;;;110140;1257;35112;-38
2022/08/03 07:28:21;;;;;;;13.30;12.10;;;;;;;;;;110084;1251;33898;-35
2022/08/03 07:30:53;;;;;;;12.80;11.50;;;;;;;;;;110221;1251;34217;-35
2022/08/03 07:33:25;;;;;;;12.30;10.70;;;;;;;;;;110167;1257;34509;-39
2022/08/03 07:35:57;;;;;;;12.00;10.90;;;;;;;;;;110140;1257;37074;-39
2022/08/03 07:38:29;;;;;;;11.80;10.70;;;;;;;;;;110189;1257;34425;-33
2022/08/03 07:41:01;;;;;;;13.10;11.80;;;;;;;;;;110185;1252;35703;-36
2022/08/03 07:43:33;;;;;;;12.20;11.00;;;;;;;;;;110199;1251;33524;-40
2022/08/03 07:46:05;;;;;;;12.00;10.90;;;;;;;;;;110179;1251;33305;-38
2022/08/03 07:48:37;;;;;;;11.90;10.70;;;;;;;;;;110165;1257;33389;-41
2022/08/03 07:51:10;;;;;;;11.80;10.60;;;;;;;;;;110195;1257;35305;-37
2022/08/03 07:53:42;;;;;;;16.20;11.60;;;;;;;;;;110202;1251;32977;-38
2022/08/03 07:56:15;;;;;;;16.70;12.50;;;;;;;;;;110186;1257;35816;-36
2022/08/03 07:58:47;;;;;;;12.70;10.60;;;;;;;;;;110154;1257;35263;-36
2022/08/03 08:01:19;;;;;;;14.90;11.80;;;;;;;;;;110169;1251;34079;-36
2022/08/03 08:03:52;;;;;;;13.60;11.30;;;;;;;;;;110183;1254;33202;-36
2022/08/03 08:06:24;;;;;;;12.80;11.00;;;;;;;;;;110149;1251;34254;-36
2022/08/03 08:09:00;;;;;;;12.00;9.50;;;;;;;;;;110117;1251;34605;-37
2022/08/03 08:11:32;;;;;;;11.30;10.10;;;;;;;;;;110168;1251;35411;-36
2022/08/03 08:14:06;;;;;;;10.70;9.70;;;;;;;;;;110144;1250;35546;-36
2022/08/03 08:16:39;;;;;;;11.30;10.20;;;;;;;;;;110143;1251;34125;-36
2022/08/03 08:19:11;;;;;;;10.50;9.40;;;;;;;;;;110168;1250;33894;-35
2022/08/03 08:21:43;;;;;;;10.90;9.70;;;;;;;;;;110157;1257;36030;-36
2022/08/03 08:24:18;;;;;;;11.00;9.70;;;;;;;;;;110105;1258;33547;-36
2022/08/03 08:26:50;;;;;;;12.20;10.50;;;;;;;;;;110058;1257;33528;-36
2022/08/03 08:29:23;;;;;;;11.80;9.40;;;;;;;;;;110060;1257;35406;-34
2022/08/03 08:31:55;;;;;;;11.80;9.50;;;;;;;;;;110114;1257;33573;-35
2022/08/03 08:34:27;;;;;;;11.70;9.40;;;;;;;;;;110142;1257;35119;-35
2022/08/03 08:36:59;;;;;;;10.60;9.50;;;;;;;;;;110159;1257;35119;-36
2022/08/03 08:39:31;;;;;;;10.40;9.40;;;;;;;;;;110164;1250;34844;-36
2022/08/03 08:42:03;;;;;;;10.00;8.90;;;;;;;;;;110151;1251;35054;-36
2022/08/03 08:44:36;;;;;;;10.30;8.60;;;;;;;;;;110162;1257;35109;-38
2022/08/03 08:47:09;;;;;;;10.80;8.40;;;;;;;;;;110156;1257;35213;-37
2022/08/03 08:49:41;;;;;;;9.70;8.70;;;;;;;;;;110134;1257;35075;-37
2022/08/03 08:52:15;;;;;;;10.60;8.50;;;;;;;;;;110147;1251;35086;-35
2022/08/03 08:54:47;;;;;;;9.20;8.20;;;;;;;;;;110137;1251;35361;-36
2022/08/03 08:57:19;;;;;;;10.10;8.40;;;;;;;;;;110134;1257;34524;-35
2022/08/03 08:59:55;;;;;;;10.90;7.80;;;;;;;;;;110168;1257;33425;-40
2022/08/03 09:02:32;;;;;;;9.00;7.60;;;;;;;;;;110122;1257;33353;-36
2022/08/03 09:05:06;;;;;;;8.40;7.60;;;;;;;;;;110150;1251;33623;-38
2022/08/03 09:07:39;;;;;;;8.90;7.00;;;;;;;;;;110114;1257;34347;-40
2022/08/03 09:10:12;;;;;;;;;;;;;;;;;;110187;1257;35521;-36
2022/08/03 09:12:45;;;;;;;7.80;7.00;;;;;;;;;;110158;1250;34110;-36
2022/08/03 09:15:24;;;;;;;7.10;6.40;;;;;;;;;;110153;1257;33355;-40
2022/08/03 09:17:59;;;;;;;8.10;6.80;;;;;;;;;;110199;1251;35357;-45
2022/08/03 09:20:35;;;;;;;8.40;6.40;;;;;;;;;;110104;1251;33826;-35
2022/08/03 09:23:10;;;;;;;7.20;6.50;;;;;;;;;;110153;1260;32749;-36
2022/08/03 09:25:46;;;;;;;8.10;6.20;;;;;;;;;;110150;1251;33329;-36
2022/08/03 09:28:19;;;;;;;9.10;6.80;;;;;;;;;;110156;1251;33777;-35
2022/08/03 09:31:01;;;;;;;7.10;6.00;;;;;;;;;;110193;1251;33508;-35
2022/08/03 09:33:33;;;;;;;7.10;5.70;;;;;;;;;;110168;1257;35517;-37
2022/08/03 09:36:06;;;;;;;7.10;5.60;;;;;;;;;;110189;1250;33758;-37
2022/08/03 09:38:38;;;;;;;6.50;5.80;;;;;;;;;;110201;1251;34419;-37
2022/08/03 09:41:19;;;;;;;6.20;5.60;;;;;;;;;;110171;1257;35240;-37
2022/08/03 09:43:55;;;;;;;6.40;5.80;;;;;;;;;;110241;1257;34362;-37
2022/08/03 09:46:30;;;;;;;6.50;5.30;;;;;;;;;;110239;1251;35007;-37
2022/08/03 09:49:15;;;;;;;6.20;5.10;;;;;;;;;;110222;1251;35283;-39
2022/08/03 09:51:47;;;;;;;6.30;5.00;;;;;;;;;;110232;1257;35084;-36
2022/08/03 09:54:30;;;;;;;5.30;4.70;;;;;;;;;;110193;1257;34786;-35
2022/08/03 09:57:04;;;;;;;6.10;4.90;;;;;;;;;;110190;1251;33557;-36
2022/08/03 09:59:36;;;;;;;5.90;4.80;;;;;;;;;;110134;1257;35505;-36
2022/08/03 10:02:23;;;;;;;6.20;4.80;;;;;;;;;;110188;1257;35379;-39
2022/08/03 10:04:58;;;;;;;6.60;4.80;;;;;;;;;;110150;1257;33574;-39
2022/08/03 10:07:30;;;;;;;5.90;4.90;;;;;;;;;;110101;1257;35129;-39
2022/08/03 10:10:05;;;;;;;5.40;4.50;;;;;;;;;;110133;1251;35116;-37
2022/08/03 10:12:38;;;;;;;5.70;4.60;;;;;;;;;;110187;1251;34509;-37
2022/08/03 10:15:12;;;;;;;5.20;4.60;;;;;;;;;;110231;1250;35345;-35
2022/08/03 10:17:45;;;;;;;5.70;4.90;;;;;;;;;;110189;1250;33566;-33
2022/08/03 10:20:17;;;;;;;4.90;4.40;;;;;;;;;;110228;1257;35217;-35
2022/08/03 10:22:50;;;;;;;4.90;4.20;;;;;;;;;;110163;1253;34235;-35
2022/08/03 10:25:23;;;;;;;4.80;3.90;;;;;;;;;;110126;1250;33048;-35
2022/08/03 10:27:58;;;;;;;5.60;4.00;;;;;;;;;;110152;1250;35289;-35
2022/08/03 10:30:30;;;;;;;4.70;4.00;;;;;;;;;;110160;1257;34517;-33
2022/08/03 10:33:08;;;;;;;6.10;4.60;;;;;;;;;;110138;1257;35086;-34
2022/08/03 10:35:41;;;;;;;5.10;4.20;;;;;;;;;;110115;1251;33829;-35
2022/08/03 10:38:22;;;;;;;5.10;4.30;;;;;;;;;;110077;1250;34331;-34
2022/08/03 10:41:00;;;;;;;4.70;3.90;;;;;;;;;;110077;1250;33895;-36
2022/08/03 10:43:39;;;;;;;5.20;4.30;;;;;;;;;;110106;1257;34995;-35
2022/08/03 10:46:16;;;;;;;6.10;4.50;;;;;;;;;;110066;1251;33919;-35
2022/08/03 10:48:49;;;;;;;5.20;3.80;;;;;;;;;;110121;1257;35117;-35
2022/08/03 10:51:22;;;;;;;5.00;4.20;;;;;;;;;;110173;1250;34134;-35
2022/08/03 10:53:53;;;;;;;;;;;;;;;;;;110051;1250;33925;-35
2022/08/03 11:00:04;;;;;;;4.60;3.50;;;;;;;;;;110158;1250;34082;-35
2022/08/03 11:03:13;;;;;;;5.10;3.90;;;;;;;;;;110178;1257;35395;-33
2022/08/03 11:05:47;;;;;;;4.50;3.80;;;;;;;;;;110172;1251;34326;-35
2022/08/03 11:08:28;;;;;;;4.90;3.40;;;;;;;;;;110189;1250;33711;-34
2022/08/03 11:11:23;;;;;;;4.50;3.70;;;;;;;;;;110176;1257;35232;-35
2022/08/03 11:14:04;;;;;;;5.00;3.40;;;;;;;;;;110223;1257;35223;-33
2022/08/03 11:16:42;;;;;;;4.70;3.50;;;;;;;;;;110174;1250;33818;-35
2022/08/03 11:19:16;;;;;;;4.60;3.70;;;;;;;;;;110172;1257;33072;-33
2022/08/03 11:21:59;;;;;;;5.20;3.80;;;;;;;;;;110165;1250;35109;-34
2022/08/03 11:25:03;;;;;;;4.30;3.60;;;;;;;;;;110229;1250;33554;-34
2022/08/03 11:27:36;;;;;;;4.10;3.50;;;;;;;;;;110185;1257;34402;-34
2022/08/03 11:30:12;;;;;;;4.60;3.70;;;;;;;;;;110172;1257;34294;-34
2022/08/03 11:33:10;;;;;;;4.60;3.40;;;;;;;;;;110196;1259;33339;-35
2022/08/03 11:36:01;;;;;;;4.20;3.30;;;;;;;;;;109216;1250;1187781;-35
2022/08/03 11:38:36;;;;;;;4.20;3.20;;;;;;;;;;110118;1258;33298;-35
2022/08/03 11:41:34;;;;;;;4.10;3.10;;;;;;;;;;110072;1250;33666;-35
2022/08/03 11:44:07;;;;;;;4.30;3.40;;;;;;;;;;110091;1257;33777;-35
2022/08/03 11:46:39;;;;;;;;;;;;;;;;;;110132;1250;35650;-34
2022/08/03 11:49:13;;;;;;;4.30;3.30;;;;;;;;;;110118;1257;32598;-35
2022/08/03 11:51:43;;;;;;;;;;;;;;;;;;110168;1257;34475;-35
2022/08/03 11:54:16;;;;;;;4.90;3.10;;;;;;;;;;110179;1250;34025;-35
2022/08/03 11:56:50;;;;;;;4.90;3.80;;;;;;;;;;110190;1257;33325;-34
2022/08/03 11:59:33;;;;;;;4.70;3.50;;;;;;;;;;110194;1257;35660;-34
2022/08/03 12:02:11;;;;;;;4.10;3.20;;;;;;;;;;110088;1250;36514;-33
2022/08/03 12:04:57;;;;;;;4.40;3.10;;;;;;;;;;110190;1257;35011;-33
2022/08/03 12:07:31;;;;;;;4.60;2.90;;;;;;;;;;110110;1257;34919;-34
2022/08/03 12:10:12;;;;;;;4.40;3.20;;;;;;;;;;110162;1257;34995;-35
2022/08/03 12:12:45;;;;;;;4.10;3.10;;;;;;;;;;110168;1250;34995;-33
2022/08/03 12:15:16;;;;;;;4.10;2.80;;;;;;;;;;110144;1251;34473;-34
2022/08/03 12:17:49;;;;;;;4.10;2.90;;;;;;;;;;110156;1257;35704;-35
2022/08/03 12:20:27;;;;;;;4.90;3.60;;;;;;;;;;110137;1250;35070;-34
2022/08/03 12:23:05;;;;;;;4.50;2.90;;;;;;;;;;110159;1250;35045;-34
2022/08/03 12:25:39;;;;;;;4.20;3.30;;;;;;;;;;110191;1257;34359;-34
2022/08/03 12:28:18;;;;;;;4.20;3.30;;;;;;;;;;110159;1257;35086;-34
2022/08/03 12:30:52;;;;;;;5.40;3.40;;;;;;;;;;110177;1250;33298;-36
2022/08/03 12:33:27;;;;;;;4.60;3.60;;;;;;;;;;110136;1257;34047;-36
2022/08/03 12:36:09;;;;;;;4.40;3.50;;;;;;;;;;110184;1250;34769;-35
2022/08/03 12:38:42;;;;;;;4.30;3.10;;;;;;;;;;110234;1250;35242;-35
2022/08/03 12:41:15;;;;;;;4.50;3.50;;;;;;;;;;110205;1250;34668;-35
2022/08/03 12:43:50;;;;;;;;;;;;;;;;;;110169;1259;36623;-34
2022/08/03 12:46:23;;;;;;;4.60;3.70;;;;;;;;;;110107;1257;34290;-35
2022/08/03 12:49:18;;;;;;;4.70;3.80;;;;;;;;;;110139;1250;34424;-34
2022/08/03 12:52:01;;;;;;;4.60;3.70;;;;;;;;;;110058;1254;33305;-34
2022/08/03 12:54:34;;;;;;;5.20;3.90;;;;;;;;;;110210;1257;35304;-36
2022/08/03 12:57:09;;;;;;;4.40;3.70;;;;;;;;;;110163;1257;34583;-35
2022/08/03 12:59:47;;;;;;;4.60;3.80;;;;;;;;;;110173;1257;35138;-35
2022/08/03 13:02:20;;;;;;;5.00;3.80;;;;;;;;;;110190;1250;35025;-34
2022/08/03 13:04:54;;;;;;;4.60;3.40;;;;;;;;;;110203;1250;34663;-33
2022/08/03 13:07:26;;;;;;;4.60;3.60;;;;;;;;;;110216;1257;35097;-34
2022/08/03 13:09:58;;;;;;;4.70;3.60;;;;;;;;;;110115;1258;34958;-34
2022/08/03 13:12:31;;;;;;;4.60;3.50;;;;;;;;;;110143;1250;36142;-34
2022/08/03 13:15:04;;;;;;;4.50;3.50;;;;;;;;;;110175;1250;33631;-33
2022/08/03 13:17:36;;;;;;;5.00;3.60;;;;;;;;;;110176;1257;35101;-36
2022/08/03 13:20:10;;;;;;;4.70;3.70;;;;;;;;;;110143;1250;34213;-35
2022/08/03 13:22:42;;;;;;;4.70;4.10;;;;;;;;;;110184;1257;34966;-36
2022/08/03 13:25:14;;;;;;;4.80;4.00;;;;;;;;;;110132;1250;33525;-34
2022/08/03 13:27:51;;;;;;;4.80;3.60;;;;;;;;;;110133;1251;33799;-34
2022/08/03 13:30:23;;;;;;;4.70;3.80;;;;;;;;;;110235;1250;33289;-34
2022/08/03 13:32:57;;;;;;;4.90;4.20;;;;;;;;;;110093;1257;33332;-34
2022/08/03 13:35:29;;;;;;;4.80;4.10;;;;;;;;;;110141;1250;35229;-35
2022/08/03 13:38:01;;;;;;;5.40;3.80;;;;;;;;;;110181;1250;34025;-34
2022/08/03 13:40:34;;;;;;;6.20;4.50;;;;;;;;;;110152;1250;34725;-34
2022/08/03 13:43:07;;;;;;;5.10;4.10;;;;;;;;;;110170;1250;33381;-34
2022/08/03 13:45:39;;;;;;;5.20;4.50;;;;;;;;;;110139;1250;33621;-34
2022/08/03 13:48:11;;;;;;;5.00;4.20;;;;;;;;;;110137;1250;34149;-34
2022/08/03 13:50:44;;;;;;;5.30;4.60;;;;;;;;;;110178;1257;35124;-35
2022/08/03 13:53:16;;;;;;;5.30;4.30;;;;;;;;;;110119;1257;35026;-35
2022/08/03 13:55:48;;;;;;;5.60;4.60;;;;;;;;;;110167;1251;33713;-35
2022/08/03 13:58:20;;;;;;;4.90;4.30;;;;;;;;;;110186;1257;34378;-36
2022/08/03 14:00:52;;;;;;;4.90;4.10;;;;;;;;;;110207;1257;34258;-33
2022/08/03 14:03:24;;;;;;;4.90;4.10;;;;;;;;;;110144;1250;35539;-35
2022/08/03 14:05:56;;;;;;;5.60;4.10;;;;;;;;;;110160;1258;35304;-35
2022/08/03 14:08:28;;;;;;;4.80;4.30;;;;;;;;;;110183;1257;35121;-36
2022/08/03 14:11:00;;;;;;;5.00;3.90;;;;;;;;;;110190;1249;32619;-38
2022/08/03 14:13:32;;;;;;;4.70;3.80;;;;;;;;;;110167;1257;35356;-35
2022/08/03 14:16:07;;;;;;;5.70;4.10;;;;;;;;;;110159;1258;33346;-35
2022/08/03 14:18:40;;;;;;;5.50;4.10;;;;;;;;;;110175;1257;35295;-34
2022/08/03 14:21:13;;;;;;;5.60;4.00;;;;;;;;;;110170;1257;32804;-35
2022/08/03 14:23:45;;;;;;;5.10;4.10;;;;;;;;;;110119;1250;34722;-35
2022/08/03 14:26:19;;;;;;;5.20;4.00;;;;;;;;;;110166;1249;34096;-35
2022/08/03 14:28:51;;;;;;;5.20;4.30;;;;;;;;;;110245;1257;32764;-35
2022/08/03 14:31:23;;;;;;;4.90;4.00;;;;;;;;;;110163;1257;33811;-35
2022/08/03 14:33:55;;;;;;;4.60;3.90;;;;;;;;;;110149;1257;34621;-33
2022/08/03 14:36:27;;;;;;;5.20;4.10;;;;;;;;;;110171;1250;33783;-32
2022/08/03 14:39:00;;;;;;;5.10;4.20;;;;;;;;;;110164;1258;35289;-33
2022/08/03 14:41:31;;;;;;;;;;;;;;;;;;110141;1250;34079;-33
2022/08/03 14:44:03;;;;;;;5.70;4.10;;;;;;;;;;110177;1250;32965;-33
2022/08/03 14:46:35;;;;;;;4.60;3.90;;;;;;;;;;110168;1251;34249;-33
2022/08/03 14:49:06;;;;;;;5.80;4.00;;;;;;;;;;110190;1257;34356;-33
2022/08/03 14:51:38;;;;;;;5.00;4.00;;;;;;;;;;110186;1257;35060;-34
2022/08/03 14:54:10;;;;;;;5.00;4.00;;;;;;;;;;110177;1259;35451;-33
2022/08/03 14:56:42;;;;;;;5.40;4.10;;;;;;;;;;110165;1250;35093;-33
2022/08/03 14:59:14;;;;;;;4.80;4.10;;;;;;;;;;110181;1257;35119;-33
2022/08/03 15:01:46;;;;;;;4.90;3.90;;;;;;;;;;110168;1258;35449;-33
2022/08/03 15:04:18;;;;;;;5.10;4.10;;;;;;;;;;110163;1257;33440;-36
2022/08/03 15:06:50;;;;;;;5.10;4.10;;;;;;;;;;110182;1257;35261;-33
2022/08/03 15:09:22;;;;;;;4.90;4.10;;;;;;;;;;110196;1250;34121;-33
2022/08/03 15:11:54;;;;;;;5.10;4.10;;;;;;;;;;110175;1258;35178;-33
2022/08/03 15:14:26;;;;;;;5.30;3.90;;;;;;;;;;110205;1257;35073;-36
2022/08/03 15:16:58;;;;;;;5.40;4.20;;;;;;;;;;110206;1257;35318;-36
2022/08/03 15:19:30;;;;;;;5.50;4.10;;;;;;;;;;110195;1257;35304;-34
2022/08/03 15:22:02;;;;;;;5.20;4.20;;;;;;;;;;110182;1257;33629;-36